createdAt,value
2019-06-07T00:02:13.301Z,15.05
2019-06-07T00:04:48.841Z,14.28
2019-06-07T00:07:22.695Z,14.90
2019-06-07T00:12:37.816Z,14.85
2019-06-07T00:15:16.389Z,15.03
2019-06-07T00:17:47.814Z,16.07
2019-06-07T00:20:23.638Z,15.93
2019-06-07T00:22:58.660Z,15.20
2019-06-07T00:25:33.996Z,15.15
2019-06-07T00:28:08.218Z,14.87
2019-06-07T00:30:51.770Z,16.20
2019-06-07T00:33:23.976Z,15.28
2019-06-07T00:35:55.116Z,14.85
2019-06-07T00:38:28.959Z,16.40
2019-06-07T00:41:02.771Z,14.35
2019-06-07T00:43:38.979Z,14.15
2019-06-07T00:46:14.380Z,15.20
2019-06-07T00:48:48.070Z,14.87
2019-06-07T00:51:23.899Z,14.78
2019-06-07T00:57:43.230Z,14.93
2019-06-07T01:00:22.348Z,14.63
2019-06-07T01:02:53.682Z,14.40
2019-06-07T01:05:31.410Z,15.15
2019-06-07T01:08:04.634Z,14.87
2019-06-07T01:10:52.833Z,15.20
2019-06-07T01:13:18.840Z,15.35
2019-06-07T01:15:58.422Z,14.68
2019-06-07T01:18:46.440Z,13.70
2019-06-07T01:21:36.354Z,14.45
2019-06-07T01:24:12.559Z,14.87
2019-06-07T01:26:45.712Z,15.38
2019-06-07T01:31:59.851Z,14.95
2019-06-07T01:34:34.533Z,14.98
2019-06-07T01:37:08.358Z,14.65
2019-06-07T01:39:42.309Z,15.03
2019-06-07T01:42:18.095Z,14.63
2019-06-07T01:44:51.395Z,15.75
2019-06-07T01:47:28.760Z,15.88
2019-06-07T01:50:01.681Z,14.70
2019-06-07T01:52:35.528Z,15.60
2019-06-07T01:55:10.180Z,15.40
2019-06-07T01:57:48.347Z,15.58
2019-06-07T02:00:23.209Z,14.85
2019-06-07T02:02:55.494Z,15.45
2019-06-07T02:05:30.854Z,15.10
2019-06-07T02:08:08.019Z,14.55
2019-06-07T02:10:41.922Z,16.45
2019-06-07T02:13:15.897Z,16.55
2019-06-07T02:15:49.714Z,15.32
2019-06-07T02:18:26.075Z,15.93
2019-06-07T02:20:58.862Z,17.17
2019-06-07T02:23:33.759Z,18.10
2019-06-07T02:26:10.820Z,15.83
2019-06-07T02:28:45.708Z,16.30
2019-06-07T02:31:21.645Z,16.55
2019-06-07T02:33:58.994Z,16.40
2019-06-07T02:36:39.144Z,15.43
2019-06-07T02:39:09.017Z,16.90
2019-06-07T02:41:50.273Z,16.20
2019-06-07T02:44:27.962Z,17.07
2019-06-07T02:50:15.322Z,17.90
2019-06-07T02:52:50.690Z,16.45
2019-06-07T02:55:27.396Z,17.12
2019-06-07T02:58:00.010Z,17.17
2019-06-07T03:03:29.927Z,24.12
2019-06-07T03:06:03.296Z,20.90
2019-06-07T03:08:41.230Z,49.48
2019-06-07T03:11:31.656Z,69.22
2019-06-07T03:14:06.079Z,51.80
2019-06-07T03:16:44.610Z,46.68
2019-06-07T03:19:22.975Z,27.58
2019-06-07T03:21:56.919Z,21.27
2019-06-07T03:27:36.075Z,18.40
2019-06-07T03:29:49.423Z,31.12
2019-06-07T03:32:46.740Z,30.08
2019-06-07T03:35:15.344Z,28.17
2019-06-07T03:43:45.864Z,27.48
2019-06-07T03:46:19.722Z,25.15
2019-06-07T03:48:54.620Z,28.47
2019-06-07T03:51:30.111Z,21.80
2019-06-07T03:54:05.094Z,21.27
2019-06-07T03:56:41.019Z,22.05
2019-06-07T03:59:15.190Z,20.30
2019-06-07T04:01:49.082Z,18.32
2019-06-07T04:04:22.897Z,16.67
2019-06-07T04:06:56.638Z,16.02
2019-06-07T04:09:33.731Z,16.42
2019-06-07T04:12:06.033Z,16.90
2019-06-07T04:14:42.490Z,18.23
2019-06-07T04:17:15.301Z,16.52
2019-06-07T04:19:49.920Z,16.02
2019-06-07T04:22:23.881Z,16.30
2019-06-07T04:24:59.835Z,15.50
2019-06-07T04:27:37.706Z,14.15
2019-06-07T04:30:12.020Z,15.45
2019-06-07T04:36:44.170Z,17.50
2019-06-07T04:39:07.600Z,16.87
2019-06-07T04:44:41.132Z,17.20
2019-06-07T04:47:20.548Z,18.95
2019-06-07T04:49:56.178Z,18.52
2019-06-07T04:52:32.470Z,17.75
2019-06-07T04:55:08.067Z,18.20
2019-06-07T04:57:43.070Z,17.75
2019-06-07T05:00:48.744Z,18.82
2019-06-07T05:03:21.651Z,18.92
2019-06-07T05:05:44.263Z,17.10
2019-06-07T05:08:28.013Z,17.12
2019-06-07T05:10:53.602Z,16.12
2019-06-07T05:13:27.368Z,17.07
2019-06-07T05:16:18.029Z,17.62
2019-06-07T05:18:51.903Z,16.30
2019-06-07T05:21:48.098Z,17.40
2019-06-07T05:27:58.024Z,17.62
2019-06-07T05:36:00.113Z,15.70
2019-06-07T05:38:35.939Z,17.17
2019-06-07T05:41:09.660Z,17.52
2019-06-07T05:43:51.489Z,17.40
2019-06-07T05:46:23.289Z,16.55
2019-06-07T05:48:58.562Z,16.80
2019-06-07T05:51:34.732Z,17.55
2019-06-07T05:54:08.700Z,16.85
2019-06-07T05:56:45.052Z,18.15
2019-06-07T05:59:19.070Z,17.82
2019-06-07T06:01:59.770Z,16.70
2019-06-07T06:04:28.584Z,16.57
2019-06-07T06:10:14.718Z,16.85
2019-06-07T06:12:51.851Z,16.20
2019-06-07T06:15:41.612Z,15.13
2019-06-07T06:17:59.599Z,16.42
2019-06-07T06:20:54.583Z,16.75
2019-06-07T06:23:12.090Z,17.00
2019-06-07T06:25:59.602Z,16.70
2019-06-07T06:28:30.854Z,15.55
2019-06-07T06:31:05.575Z,15.78
2019-06-07T06:33:39.872Z,16.35
2019-06-07T06:36:14.794Z,17.30
2019-06-07T06:38:49.697Z,16.80
2019-06-07T06:41:24.093Z,16.95
2019-06-07T06:43:58.391Z,16.07
2019-06-07T06:46:39.083Z,15.63
2019-06-07T06:49:07.839Z,16.62
2019-06-07T06:51:43.098Z,16.55
2019-06-07T06:54:39.331Z,15.95
2019-06-07T06:57:16.016Z,16.40
2019-06-07T06:59:52.545Z,16.42
2019-06-07T07:02:25.683Z,16.93
2019-06-07T07:05:00.031Z,16.95
2019-06-07T07:07:34.359Z,17.75
2019-06-07T07:10:11.890Z,16.73
2019-06-07T07:12:47.828Z,17.90
2019-06-07T07:15:21.181Z,17.87
2019-06-07T07:18:07.811Z,17.52
2019-06-07T07:20:31.858Z,16.62
2019-06-07T07:23:06.637Z,16.42
2019-06-07T07:28:50.750Z,15.88
2019-06-07T07:31:25.060Z,14.83
2019-06-07T07:34:30.936Z,15.03
2019-06-07T07:36:39.268Z,17.32
2019-06-07T07:39:12.800Z,16.97
2019-06-07T07:42:12.273Z,16.02
2019-06-07T07:44:22.089Z,16.70
2019-06-07T07:46:57.009Z,16.52
2019-06-07T07:49:32.369Z,17.32
2019-06-07T07:52:07.604Z,15.65
2019-06-07T07:54:42.420Z,16.20
2019-06-07T07:57:16.158Z,12.75
2019-06-07T08:00:48.495Z,15.60
2019-06-07T08:02:48.789Z,16.73
2019-06-07T08:08:29.191Z,15.70
2019-06-07T08:11:03.044Z,14.95
2019-06-07T08:13:37.423Z,15.60
2019-06-07T08:16:18.819Z,15.85
2019-06-07T08:18:57.120Z,15.20
2019-06-07T08:24:18.387Z,17.20
2019-06-07T08:30:00.588Z,14.75
2019-06-07T08:32:20.223Z,13.08
2019-06-07T08:35:01.725Z,12.33
2019-06-07T08:38:13.930Z,12.35
2019-06-07T08:40:10.785Z,12.75
2019-06-07T08:43:04.540Z,11.88
2019-06-07T08:45:20.824Z,11.50
2019-06-07T08:48:01.030Z,11.35
2019-06-07T08:50:30.116Z,11.73
2019-06-07T08:53:11.867Z,13.15
2019-06-07T08:55:39.271Z,13.55
2019-06-07T08:58:13.126Z,13.28
2019-06-07T09:00:48.271Z,13.10
2019-06-07T09:03:22.189Z,12.25
2019-06-07T09:05:57.084Z,12.00
2019-06-07T09:08:31.783Z,13.85
2019-06-07T09:11:10.887Z,13.10
2019-06-07T09:13:41.057Z,11.45
2019-06-07T09:16:14.901Z,11.40
2019-06-07T09:18:50.353Z,11.05
2019-06-07T09:21:25.183Z,10.68
2019-06-07T09:24:07.068Z,9.88
2019-06-07T09:26:37.219Z,9.93
2019-06-07T09:29:12.831Z,11.28
2019-06-07T09:31:53.409Z,11.08
2019-06-07T09:34:24.718Z,12.50
2019-06-07T09:39:59.566Z,10.18
2019-06-07T09:42:32.610Z,10.15
2019-06-07T09:45:20.513Z,10.72
2019-06-07T09:47:57.055Z,12.30
2019-06-07T09:50:32.216Z,11.48
2019-06-07T09:53:21.174Z,9.65
2019-06-07T09:55:44.993Z,10.98
2019-06-07T09:58:51.177Z,11.18
2019-06-07T10:01:17.629Z,11.43
2019-06-07T10:03:51.471Z,12.07
2019-06-07T10:06:25.390Z,13.32
2019-06-07T10:11:40.000Z,13.00
2019-06-07T10:14:14.044Z,13.22
2019-06-07T10:16:48.983Z,12.53
2019-06-07T10:19:22.764Z,13.25
2019-06-07T10:21:56.958Z,14.53
2019-06-07T10:24:30.773Z,17.15
2019-06-07T10:27:05.908Z,23.52
2019-06-07T10:29:39.722Z,25.75
2019-06-07T10:32:13.617Z,24.82
2019-06-07T10:34:48.889Z,27.22
2019-06-07T10:37:22.761Z,25.97
2019-06-07T10:39:56.604Z,28.60
2019-06-07T10:42:30.427Z,26.20
2019-06-07T10:45:06.629Z,24.67
2019-06-07T11:12:31.867Z,10.68
2019-06-07T11:15:08.952Z,10.85
2019-06-07T11:17:43.258Z,10.15
2019-06-07T11:20:18.631Z,11.35
2019-06-07T11:22:52.671Z,11.43
2019-06-07T11:25:26.490Z,10.93
2019-06-07T11:28:00.395Z,11.57
2019-06-07T11:30:35.210Z,11.08
2019-06-07T11:33:11.877Z,11.43
2019-06-07T11:35:52.220Z,13.15
2019-06-07T11:38:26.024Z,13.25
2019-06-07T11:40:59.924Z,13.03
2019-06-07T11:43:33.737Z,13.32
2019-06-07T11:46:08.773Z,12.18
2019-06-07T11:48:43.251Z,11.68
2019-06-07T11:51:18.964Z,13.50
2019-06-07T11:54:00.075Z,14.75
2019-06-07T11:56:39.874Z,15.55
2019-06-07T11:59:13.722Z,15.18
2019-06-07T12:01:47.552Z,15.43
2019-06-07T12:04:46.165Z,14.43
2019-06-07T12:07:30.046Z,14.70
2019-06-07T12:10:10.886Z,15.65
2019-06-07T12:12:45.911Z,15.53
2019-06-07T12:15:20.316Z,15.43
2019-06-07T12:17:54.073Z,15.15
2019-06-07T12:20:27.952Z,14.70
2019-06-07T12:23:01.867Z,12.60
2019-06-07T12:25:36.792Z,12.85
2019-06-07T12:28:12.601Z,14.07
2019-06-07T12:30:46.377Z,12.05
2019-06-07T12:33:21.721Z,12.30
2019-06-07T12:35:55.680Z,12.20
2019-06-07T12:38:29.580Z,12.33
2019-06-07T12:41:03.300Z,12.63
2019-06-07T12:43:37.163Z,12.73
2019-06-07T12:46:14.640Z,11.68
2019-06-07T12:48:46.471Z,12.00
2019-06-07T12:51:23.370Z,12.98
2019-06-07T12:53:57.521Z,12.35
2019-06-07T12:56:31.295Z,10.18
2019-06-07T12:59:05.201Z,12.25
2019-06-07T13:01:42.452Z,12.63
2019-06-07T13:04:18.530Z,12.03
2019-06-07T13:06:52.414Z,11.53
2019-06-07T13:09:28.646Z,12.10
2019-06-07T13:12:09.097Z,12.15
2019-06-07T13:14:42.945Z,11.68
2019-06-07T13:17:18.368Z,11.90
2019-06-07T13:19:52.396Z,12.20
2019-06-07T13:22:26.263Z,12.25
2019-06-07T13:25:00.012Z,11.63
2019-06-07T13:27:34.119Z,12.05
2019-06-07T13:30:10.942Z,12.33
2019-06-07T13:32:46.323Z,12.43
2019-06-07T13:38:29.139Z,12.18
2019-06-07T13:41:03.061Z,12.80
2019-06-07T13:43:36.941Z,13.05
2019-06-07T13:46:18.997Z,13.78
2019-06-07T13:52:17.200Z,12.23
2019-06-07T13:54:51.051Z,13.85
2019-06-07T13:57:58.299Z,15.65
2019-06-07T14:00:14.213Z,14.25
2019-06-07T14:02:51.227Z,16.27
2019-06-07T14:05:25.167Z,14.78
2019-06-07T14:08:45.484Z,15.18
2019-06-07T14:11:19.530Z,14.90
2019-06-07T14:13:53.453Z,15.70
2019-06-07T14:16:28.350Z,17.42
2019-06-07T14:19:02.445Z,15.80
2019-06-07T14:21:51.595Z,15.65
2019-06-07T14:24:17.601Z,15.60
2019-06-07T14:27:08.155Z,16.37
2019-06-07T14:29:42.068Z,15.90
2019-06-07T14:32:15.843Z,16.95
2019-06-07T14:34:49.655Z,16.30
2019-06-07T14:37:37.583Z,15.38
2019-06-07T14:40:13.396Z,16.17
2019-06-07T14:42:48.158Z,14.73
2019-06-07T14:45:23.542Z,15.93
2019-06-07T14:50:53.307Z,15.88
2019-06-07T14:53:27.415Z,16.75
2019-06-07T14:56:10.874Z,16.67
2019-06-07T14:58:46.384Z,17.48
2019-06-07T15:01:20.143Z,17.90
2019-06-07T15:03:53.812Z,16.17
2019-06-07T15:09:35.364Z,16.62
2019-06-07T15:12:26.139Z,16.00
2019-06-07T15:15:00.976Z,16.62
2019-06-07T15:17:35.722Z,16.00
2019-06-07T15:20:13.245Z,15.72
2019-06-07T15:22:57.944Z,15.85
2019-06-07T15:25:33.129Z,15.45
2019-06-07T15:28:07.924Z,15.80
2019-06-07T15:30:41.861Z,15.00
2019-06-07T15:33:15.657Z,15.72
2019-06-07T15:35:49.443Z,15.95
2019-06-07T15:38:23.143Z,16.85
2019-06-07T16:40:32.847Z,22.02
2019-06-07T16:43:22.947Z,21.90
2019-06-07T16:45:56.899Z,21.90
2019-06-07T16:48:30.746Z,22.93
2019-06-07T16:51:04.660Z,23.27
2019-06-07T16:53:49.108Z,22.32
2019-06-07T17:00:27.664Z,21.60
2019-06-07T17:03:01.530Z,22.80
2019-06-07T17:05:35.669Z,23.22
2019-06-07T17:08:13.224Z,22.82
2019-06-07T17:53:48.011Z,24.27
2019-06-07T17:56:21.830Z,25.72
2019-06-07T17:58:55.613Z,25.23
2019-06-07T18:01:41.188Z,36.10
2019-06-07T18:07:14.859Z,88.92
2019-06-07T18:13:30.348Z,48.13
2019-06-07T18:16:04.037Z,33.33
2019-06-07T18:18:37.777Z,30.12
2019-06-07T18:21:13.000Z,31.00
2019-06-07T18:23:46.806Z,43.02
2019-06-07T18:26:20.595Z,80.67
2019-06-07T18:31:46.915Z,27.25
2019-06-07T18:34:20.744Z,27.70
2019-06-07T18:36:55.295Z,28.40
2019-06-07T18:39:29.069Z,88.17
2019-06-07T18:42:03.559Z,33.53
2019-06-07T18:44:37.215Z,34.65
2019-06-07T18:47:10.924Z,37.60
2019-06-07T18:49:45.189Z,43.83
2019-06-07T18:52:20.491Z,34.15
2019-06-07T18:54:55.058Z,26.93
2019-06-07T18:57:28.970Z,31.42
2019-06-07T19:00:02.688Z,37.28
2019-06-07T19:02:37.636Z,38.20
2019-06-07T19:05:13.324Z,37.17
2019-06-07T19:07:48.382Z,31.60
2019-06-07T19:10:22.807Z,31.55
2019-06-07T19:12:57.420Z,31.85
2019-06-07T19:15:31.489Z,34.23
2019-06-07T19:18:05.980Z,29.35
2019-06-07T19:20:39.731Z,31.15
2019-06-07T19:23:13.522Z,37.30
2019-06-07T19:25:47.733Z,33.78
2019-06-07T19:28:21.441Z,65.32
2019-06-07T19:30:55.267Z,45.78
2019-06-07T19:33:28.951Z,30.52
2019-06-07T19:36:02.711Z,29.75
2019-06-07T19:38:37.630Z,31.48
2019-06-07T19:41:19.285Z,30.88
2019-06-07T19:43:47.620Z,30.08
2019-06-07T19:46:21.499Z,28.65
2019-06-07T19:48:56.490Z,31.73
2019-06-07T19:51:30.423Z,33.08
2019-06-07T19:54:04.429Z,35.60
2019-06-07T19:56:38.393Z,34.45
2019-06-07T19:59:12.199Z,30.95
2019-06-07T20:01:46.580Z,27.48
2019-06-07T20:04:23.399Z,31.70
2019-06-07T20:06:58.231Z,34.18
2019-06-07T20:09:32.079Z,27.50
2019-06-07T20:12:06.400Z,26.77
2019-06-07T20:14:40.187Z,26.20
2019-06-07T20:17:13.735Z,26.30
2019-06-07T20:19:47.840Z,27.02
2019-06-07T20:22:22.729Z,27.27
2019-06-07T20:24:56.790Z,28.47
2019-06-07T20:27:30.727Z,31.07
2019-06-07T20:30:08.579Z,35.23
2019-06-07T20:32:43.504Z,35.00
2019-06-07T20:35:17.478Z,33.58
2019-06-07T20:37:51.212Z,27.80
2019-06-07T20:40:25.191Z,26.95
2019-06-07T20:42:59.384Z,27.10
2019-06-07T20:45:34.409Z,26.50
2019-06-07T20:48:13.733Z,25.97
2019-06-07T20:50:48.140Z,26.12
2019-06-07T20:53:21.954Z,25.48
2019-06-07T20:55:55.762Z,26.48
2019-06-07T20:58:29.493Z,24.00
2019-06-07T21:01:06.914Z,24.67
2019-06-07T21:03:43.944Z,25.00
2019-06-07T21:06:17.660Z,24.87
2019-06-07T21:08:51.535Z,23.60
2019-06-07T21:11:25.773Z,23.15
2019-06-07T21:13:59.922Z,24.67
2019-06-07T21:16:33.853Z,26.95
2019-06-07T21:19:08.318Z,26.73
2019-06-07T21:21:43.070Z,26.85
2019-06-07T21:24:17.679Z,27.87
2019-06-07T21:26:53.310Z,29.52
2019-06-07T21:29:27.403Z,27.82
2019-06-07T21:32:01.341Z,27.62
2019-06-07T21:34:35.150Z,30.92
2019-06-07T21:37:09.985Z,29.07
2019-06-07T21:39:45.600Z,28.62
2019-06-07T21:42:19.543Z,26.85
2019-06-07T21:44:53.271Z,28.02
2019-06-07T21:47:26.982Z,28.60
2019-06-07T21:50:04.918Z,29.37
2019-06-07T21:52:38.842Z,33.10
2019-06-07T21:55:13.706Z,31.17
2019-06-07T21:58:05.159Z,31.73
2019-06-07T22:00:58.459Z,32.28
2019-06-07T22:03:32.702Z,31.42
2019-06-07T22:06:09.748Z,30.75
2019-06-07T22:08:43.645Z,29.90
2019-06-07T22:11:17.542Z,29.02
2019-06-07T22:13:52.081Z,29.27
2019-06-07T22:16:29.186Z,29.57
2019-06-07T22:19:01.360Z,30.65
2019-06-07T22:21:35.230Z,30.75
2019-06-07T22:24:08.972Z,29.90
2019-06-07T22:26:43.603Z,31.10
2019-06-07T22:29:19.258Z,35.03
2019-06-07T22:31:52.806Z,36.50
2019-06-07T22:34:26.515Z,35.28
2019-06-07T22:37:00.255Z,37.80
2019-06-07T22:39:35.538Z,38.30
2019-06-07T22:42:11.999Z,37.25
2019-06-07T22:44:46.254Z,36.10
2019-06-07T22:47:20.019Z,34.65
2019-06-07T22:49:53.732Z,35.15
2019-06-07T22:52:27.583Z,35.35
2019-06-07T22:55:01.422Z,33.65
2019-06-07T22:57:53.952Z,34.78
2019-06-07T23:00:36.171Z,36.83
2019-06-07T23:03:10.666Z,37.13
2019-06-07T23:05:44.524Z,36.73
2019-06-07T23:08:19.113Z,36.30
2019-06-07T23:10:52.872Z,34.85
2019-06-07T23:13:26.609Z,35.15
2019-06-07T23:16:00.344Z,35.30
2019-06-07T23:18:34.192Z,33.13
2019-06-07T23:21:08.014Z,31.82
2019-06-07T23:23:41.850Z,33.92
2019-06-07T23:26:16.228Z,34.90
2019-06-07T23:28:50.000Z,33.40
2019-06-07T23:31:23.819Z,35.60
2019-06-07T23:33:57.551Z,33.65
2019-06-07T23:36:31.312Z,34.20
2019-06-07T23:39:07.417Z,32.80
2019-06-07T23:41:41.833Z,36.33
2019-06-07T23:44:15.690Z,33.48
2019-06-07T23:46:49.482Z,34.73
2019-06-07T23:49:23.320Z,34.08
2019-06-07T23:51:57.033Z,32.38
2019-06-07T23:54:30.741Z,32.13
2019-06-07T23:57:04.599Z,32.03
2019-06-07T23:59:39.428Z,31.02
